Time;durP1;ratioP1;P1;durP2;ratioP2;P2;SDS_P1;SDS_P2;PMS_P1;PMS_P2;Temp;Humidity;BMP_temperature;BMP_pressure;BME280_temperature;BME280_humidity;BME280_pressure;Samples;Min_cycle;Max_cycle;Signal;HPM_P1;HPM_P2
2021/03/20 00:00:35;;;;;;;0.20;0.20;;;2.90;99.90;;;;;;4990212;28;20076;-86
2021/03/20 00:03:01;;;;;;;0.28;0.28;;;2.90;99.90;;;;;;4986266;28;20533;-86
2021/03/20 00:05:27;;;;;;;0.20;0.20;;;2.80;99.90;;;;;;4989750;28;20022;-86
2021/03/20 00:07:55;;;;;;;0.10;0.10;;;3.00;99.90;;;;;;4976821;28;20038;-86
2021/03/20 00:10:24;;;;;;;0.82;0.82;;;3.00;99.90;;;;;;4987800;28;20026;-86
2021/03/20 00:12:50;;;;;;;1.15;0.73;;;3.00;99.90;;;;;;4982830;28;20054;-86
2021/03/20 00:15:20;;;;;;;0.45;0.45;;;2.90;99.90;;;;;;5002459;28;20073;-86
2021/03/20 00:17:45;;;;;;;0.20;0.20;;;2.80;99.90;;;;;;4990597;28;20952;-86
2021/03/20 00:20:19;;;;;;;0.10;0.10;;;2.90;99.90;;;;;;4989650;28;20076;-86
2021/03/20 00:22:44;;;;;;;0.20;0.20;;;2.80;99.90;;;;;;4992735;28;20038;-86
2021/03/20 00:25:11;;;;;;;0.50;0.50;;;2.70;99.90;;;;;;4998302;28;20029;-86
2021/03/20 00:27:37;;;;;;;0.82;0.82;;;2.70;99.90;;;;;;4989604;28;20034;-86
2021/03/20 00:30:05;;;;;;;0.30;0.30;;;2.80;99.90;;;;;;4999044;28;20520;-86
2021/03/20 00:32:31;;;;;;;0.17;0.17;;;2.80;99.90;;;;;;5000816;28;20045;-86
2021/03/20 00:34:57;;;;;;;0.20;0.20;;;2.70;99.90;;;;;;4997412;28;20021;-86
2021/03/20 00:37:23;;;;;;;0.15;0.15;;;2.60;99.90;;;;;;4994748;28;20037;-86
2021/03/20 00:39:48;;;;;;;0.30;0.30;;;2.70;99.90;;;;;;4989358;28;20097;-86
2021/03/20 00:42:14;;;;;;;0.50;0.50;;;2.50;99.90;;;;;;4991860;28;20232;-86
2021/03/20 00:44:40;;;;;;;0.20;0.20;;;2.60;99.90;;;;;;4977955;28;20498;-86
2021/03/20 00:47:06;;;;;;;0.10;0.10;;;2.70;99.90;;;;;;4992356;28;20096;-86
2021/03/20 00:49:32;;;;;;;0.20;0.20;;;2.60;99.90;;;;;;4988227;28;20495;-86
2021/03/20 00:51:58;;;;;;;0.57;0.57;;;2.60;99.90;;;;;;4989177;28;20091;-86
2021/03/20 00:54:24;;;;;;;0.20;0.20;;;2.40;99.90;;;;;;4988243;28;20034;-86
2021/03/20 00:56:50;;;;;;;0.47;0.47;;;2.80;99.90;;;;;;4989012;28;20041;-86
2021/03/20 00:59:16;;;;;;;3.92;0.75;;;3.00;99.90;;;;;;4988097;28;20184;-86
2021/03/20 01:01:42;;;;;;;0.30;0.30;;;3.10;99.90;;;;;;4978380;28;20121;-86
2021/03/20 01:04:08;;;;;;;0.20;0.20;;;3.10;99.90;;;;;;4988826;28;20121;-86
2021/03/20 01:06:34;;;;;;;0.20;0.20;;;3.00;99.90;;;;;;4995086;28;20038;-86
2021/03/20 01:09:00;;;;;;;0.73;0.73;;;2.80;99.90;;;;;;4985592;28;20034;-86
2021/03/20 01:11:28;;;;;;;0.35;0.35;;;2.70;99.90;;;;;;4984054;28;20026;-86
2021/03/20 01:13:55;;;;;;;0.60;0.60;;;2.80;99.90;;;;;;4976554;28;20387;-86
2021/03/20 01:16:21;;;;;;;0.10;0.10;;;3.00;99.90;;;;;;4987871;28;20043;-86
2021/03/20 01:18:47;;;;;;;3.65;1.17;;;2.90;99.90;;;;;;4988524;28;20027;-85
2021/03/20 01:21:13;;;;;;;0.45;0.45;;;2.80;99.90;;;;;;4992986;28;20842;-86
2021/03/20 01:23:39;;;;;;;0.10;0.10;;;2.80;99.90;;;;;;5008032;28;20048;-85
2021/03/20 01:26:06;;;;;;;0.40;0.40;;;2.50;99.90;;;;;;4996712;28;20027;-85
2021/03/20 01:28:35;;;;;;;0.22;0.22;;;2.70;99.90;;;;;;4992434;28;20037;-86
2021/03/20 01:31:02;;;;;;;0.38;0.38;;;2.80;99.90;;;;;;5012825;28;20018;-85
2021/03/20 01:33:28;;;;;;;;;;;2.70;99.90;;;;;;5006507;28;20040;-85
2021/03/20 01:35:54;;;;;;;1.08;1.08;;;2.70;99.90;;;;;;4993099;28;20665;-85
2021/03/20 01:38:21;;;;;;;0.30;0.30;;;2.80;99.90;;;;;;4987894;28;20141;-86
2021/03/20 01:40:50;;;;;;;;;;;2.60;99.90;;;;;;4995517;28;20034;-85
2021/03/20 01:43:17;;;;;;;0.17;0.17;;;2.60;99.90;;;;;;4994398;28;19913;-85
2021/03/20 01:45:43;;;;;;;;;;;2.50;99.90;;;;;;4990985;28;20113;-85
2021/03/20 01:48:11;;;;;;;0.77;0.77;;;2.40;99.90;;;;;;4994667;28;20025;-85
2021/03/20 01:50:51;;;;;;;0.10;0.10;;;2.30;99.90;;;;;;4994628;28;20026;-86
2021/03/20 01:53:28;;;;;;;0.15;0.15;;;2.40;99.90;;;;;;4993181;28;20520;-85
2021/03/20 01:55:55;;;;;;;0.15;0.15;;;2.40;99.90;;;;;;4994656;28;20040;-85
2021/03/20 01:58:21;;;;;;;0.20;0.20;;;2.30;99.90;;;;;;4994217;28;20026;-85
2021/03/20 02:00:48;;;;;;;0.40;0.40;;;2.40;99.90;;;;;;4994572;28;20316;-85
2021/03/20 02:03:20;;;;;;;0.70;0.70;;;2.40;99.90;;;;;;4996960;28;20034;-85
2021/03/20 02:05:46;;;;;;;0.20;0.20;;;2.70;99.90;;;;;;5004063;28;20041;-85
2021/03/20 02:08:15;;;;;;;0.67;0.67;;;2.70;99.90;;;;;;4996072;28;20681;-85
2021/03/20 02:10:43;;;;;;;0.30;0.30;;;2.70;99.90;;;;;;4988827;28;20348;-86
2021/03/20 02:13:30;;;;;;;0.10;0.10;;;2.30;99.90;;;;;;4994824;28;20042;-85
2021/03/20 02:16:27;;;;;;;0.10;0.10;;;2.50;99.90;;;;;;4993132;28;20046;-85
2021/03/20 02:19:42;;;;;;;0.20;0.20;;;2.60;99.90;;;;;;4992263;28;20057;-86
2021/03/20 02:22:19;;;;;;;0.10;0.10;;;2.30;99.90;;;;;;4993429;28;20161;-86
2021/03/20 02:25:04;;;;;;;;;;;2.30;99.90;;;;;;5007416;28;20033;-86
2021/03/20 02:28:06;;;;;;;0.28;0.28;;;2.30;99.90;;;;;;4996384;28;19975;-86
2021/03/20 02:31:22;;;;;;;0.35;0.35;;;2.10;99.90;;;;;;5003416;28;20105;-87
2021/03/20 02:33:48;;;;;;;0.10;0.10;;;2.20;99.90;;;;;;4991036;28;20057;-86
2021/03/20 02:36:31;;;;;;;0.38;0.38;;;2.20;99.90;;;;;;4988746;28;20030;-86
2021/03/20 02:39:27;;;;;;;0.35;0.35;;;2.20;99.90;;;;;;4982469;28;20109;-86
2021/03/20 02:42:26;;;;;;;0.45;0.45;;;2.40;99.90;;;;;;4992220;28;20079;-86
2021/03/20 02:45:01;;;;;;;0.20;0.20;;;2.30;99.90;;;;;;4980001;28;20034;-86
2021/03/20 02:47:30;;;;;;;0.20;0.20;;;2.40;99.90;;;;;;4992238;28;20049;-86
2021/03/20 02:50:21;;;;;;;0.10;0.10;;;2.30;99.90;;;;;;4989820;28;20755;-86
2021/03/20 02:52:54;;;;;;;0.63;0.50;;;2.00;99.90;;;;;;4980529;28;20050;-86
2021/03/20 02:55:29;;;;;;;0.10;0.10;;;2.20;99.90;;;;;;4988029;28;20049;-85
2021/03/20 02:58:10;;;;;;;0.40;0.40;;;2.20;99.90;;;;;;4998671;28;20057;-86
2021/03/20 03:00:50;;;;;;;0.57;0.57;;;2.10;99.90;;;;;;4989117;28;20778;-85
2021/03/20 03:03:18;;;;;;;0.45;0.45;;;2.30;99.90;;;;;;5002212;28;20029;-85
2021/03/20 03:05:59;;;;;;;0.25;0.25;;;2.20;99.90;;;;;;4989622;28;20027;-85
2021/03/20 03:08:31;;;;;;;0.22;0.22;;;2.00;99.90;;;;;;4985509;28;20027;-86
2021/03/20 03:11:09;;;;;;;0.85;0.85;;;2.20;99.90;;;;;;4985243;28;20030;-86
2021/03/20 03:13:39;;;;;;;0.30;0.30;;;2.00;99.90;;;;;;4990359;28;20022;-86
2021/03/20 03:16:13;;;;;;;0.85;0.85;;;2.10;99.90;;;;;;5003622;28;20133;-86
2021/03/20 03:18:48;;;;;;;0.20;0.20;;;2.00;99.90;;;;;;4991268;28;20609;-87
2021/03/20 03:21:16;;;;;;;0.68;0.68;;;1.90;99.90;;;;;;4990176;28;20076;-86
2021/03/20 03:23:42;;;;;;;0.20;0.20;;;1.80;99.90;;;;;;4990447;28;20081;-86
2021/03/20 03:26:10;;;;;;;0.73;0.73;;;2.20;99.90;;;;;;4998687;28;20622;-88
2021/03/20 03:28:38;;;;;;;0.10;0.10;;;2.00;99.90;;;;;;5000955;28;20051;-86
2021/03/20 03:31:11;;;;;;;0.10;0.10;;;1.70;99.90;;;;;;4976843;28;20596;-86
2021/03/20 03:33:46;;;;;;;0.25;0.25;;;1.70;99.90;;;;;;4998475;28;20053;-86
2021/03/20 03:36:17;;;;;;;0.10;0.10;;;1.40;99.90;;;;;;4984880;28;20121;-86
2021/03/20 03:39:07;;;;;;;0.45;0.45;;;1.50;99.90;;;;;;4990078;28;20038;-86
2021/03/20 03:41:37;;;;;;;0.32;0.32;;;1.90;99.90;;;;;;4988645;28;20035;-86
2021/03/20 03:44:05;;;;;;;0.20;0.20;;;1.70;99.90;;;;;;4999892;28;20115;-86
2021/03/20 03:46:34;;;;;;;0.30;0.30;;;1.80;99.90;;;;;;4994135;28;20503;-85
2021/03/20 03:49:04;;;;;;;0.68;0.68;;;2.00;99.90;;;;;;4991004;28;20040;-86
2021/03/20 03:51:30;;;;;;;0.20;0.20;;;1.50;99.90;;;;;;4988007;28;20029;-86
2021/03/20 03:53:58;;;;;;;0.10;0.10;;;1.70;99.90;;;;;;4990378;28;20034;-87
2021/03/20 03:56:43;;;;;;;0.30;0.30;;;1.80;99.90;;;;;;4988365;28;20054;-86
2021/03/20 03:59:22;;;;;;;0.10;0.10;;;2.00;99.90;;;;;;4986496;28;20022;-86
2021/03/20 04:02:14;;;;;;;0.10;0.10;;;1.90;99.90;;;;;;4978656;28;20033;-85
2021/03/20 04:05:09;;;;;;;0.55;0.55;;;2.00;99.90;;;;;;4994671;28;20037;-85
2021/03/20 04:07:44;;;;;;;0.10;0.10;;;1.80;99.90;;;;;;4983979;28;20095;-85
2021/03/20 04:10:17;;;;;;;0.30;0.30;;;1.90;99.90;;;;;;4994975;28;20486;-84
2021/03/20 04:13:07;;;;;;;0.40;0.40;;;2.00;99.90;;;;;;4989411;28;20034;-84
2021/03/20 04:15:46;;;;;;;0.20;0.20;;;2.00;99.90;;;;;;4985971;28;20828;-85
2021/03/20 04:18:39;;;;;;;0.20;0.20;;;2.00;99.90;;;;;;4988436;28;20030;-85
2021/03/20 04:21:31;;;;;;;0.10;0.10;;;2.00;99.90;;;;;;4985222;28;20031;-85
2021/03/20 04:24:05;;;;;;;0.35;0.35;;;1.80;99.90;;;;;;5005685;28;20017;-85
2021/03/20 04:27:00;;;;;;;0.10;0.10;;;1.80;99.90;;;;;;4989615;28;20022;-85
2021/03/20 04:29:44;;;;;;;0.10;0.10;;;1.90;99.90;;;;;;4988464;28;20042;-85
2021/03/20 04:32:25;;;;;;;0.10;0.10;;;1.90;99.90;;;;;;4980992;28;20058;-85
2021/03/20 04:34:59;;;;;;;0.40;0.40;;;1.80;99.90;;;;;;4984232;28;20803;-85
2021/03/20 04:37:32;;;;;;;0.50;0.50;;;1.80;99.90;;;;;;4988219;28;20053;-85
2021/03/20 04:39:59;;;;;;;0.40;0.40;;;2.00;99.90;;;;;;4985291;28;20033;-85
2021/03/20 04:42:33;;;;;;;0.10;0.10;;;1.60;99.90;;;;;;4988767;28;20104;-85
2021/03/20 04:45:23;;;;;;;0.43;0.43;;;1.60;99.90;;;;;;4988485;28;20110;-85
2021/03/20 04:47:50;;;;;;;0.10;0.10;;;1.50;99.90;;;;;;4987706;28;20030;-85
2021/03/20 04:50:25;;;;;;;0.30;0.30;;;1.60;99.90;;;;;;5002925;28;20049;-85
2021/03/20 04:52:54;;;;;;;0.32;0.32;;;1.40;99.90;;;;;;4988049;28;20044;-85
2021/03/20 04:55:19;;;;;;;0.40;0.40;;;1.40;99.90;;;;;;4986896;28;20030;-85
2021/03/20 04:58:05;;;;;;;0.30;0.30;;;1.50;99.90;;;;;;4988316;28;20042;-85
2021/03/20 05:01:08;;;;;;;0.40;0.40;;;1.50;99.90;;;;;;4973768;28;20029;-85
2021/03/20 05:03:46;;;;;;;0.22;0.22;;;1.50;99.90;;;;;;4960297;28;20023;-85
2021/03/20 05:06:15;;;;;;;0.10;0.10;;;1.40;99.90;;;;;;4966144;28;20035;-85
2021/03/20 05:08:46;;;;;;;0.25;0.25;;;1.40;99.90;;;;;;4965259;28;20415;-86
2021/03/20 05:11:12;;;;;;;0.30;0.30;;;1.50;99.90;;;;;;4958493;28;20031;-86
2021/03/20 05:13:37;;;;;;;0.10;0.10;;;1.40;99.90;;;;;;4947824;28;20526;-85
2021/03/20 05:16:09;;;;;;;0.20;0.20;;;1.40;99.90;;;;;;4963936;28;20141;-86
2021/03/20 05:18:35;;;;;;;0.75;0.60;;;1.30;99.90;;;;;;4967512;28;20502;-86
2021/03/20 05:21:00;;;;;;;0.10;0.10;;;1.40;99.90;;;;;;4957426;28;20031;-86
2021/03/20 05:23:26;;;;;;;0.10;0.10;;;1.30;99.90;;;;;;4956268;28;20039;-86
2021/03/20 05:25:52;;;;;;;0.10;0.10;;;1.30;99.90;;;;;;4956061;28;20720;-86
2021/03/20 05:28:17;;;;;;;0.10;0.10;;;1.30;99.90;;;;;;4952327;28;20035;-86
2021/03/20 05:30:43;;;;;;;0.20;0.20;;;1.20;99.90;;;;;;4953513;28;20122;-86
2021/03/20 05:33:13;;;;;;;0.20;0.20;;;1.10;99.90;;;;;;4957578;28;20047;-86
2021/03/20 05:35:39;;;;;;;0.10;0.10;;;1.10;99.90;;;;;;4962556;28;20062;-86
2021/03/20 05:38:04;;;;;;;0.22;0.22;;;1.10;99.90;;;;;;4966579;28;20153;-86
2021/03/20 05:40:32;;;;;;;0.40;0.40;;;1.10;99.90;;;;;;4984637;28;20030;-87
2021/03/20 05:43:20;;;;;;;0.10;0.10;;;0.90;99.90;;;;;;4988981;28;20050;-86
2021/03/20 05:46:21;;;;;;;0.30;0.30;;;1.10;99.90;;;;;;4991616;28;20053;-85
2021/03/20 05:49:14;;;;;;;0.30;0.30;;;1.10;99.90;;;;;;4980332;28;20518;-85
2021/03/20 05:52:12;;;;;;;0.20;0.20;;;1.10;99.90;;;;;;4987397;28;20058;-86
2021/03/20 05:55:15;;;;;;;0.10;0.10;;;1.10;99.90;;;;;;4991111;28;20050;-86
2021/03/20 05:58:02;;;;;;;0.13;0.13;;;1.00;99.90;;;;;;4984788;28;20142;-86
2021/03/20 06:00:54;;;;;;;0.10;0.10;;;1.30;99.90;;;;;;4986672;28;20027;-86
2021/03/20 06:03:19;;;;;;;0.10;0.10;;;1.30;99.90;;;;;;4987018;28;20398;-87
2021/03/20 06:05:55;;;;;;;0.20;0.20;;;1.50;99.90;;;;;;4974466;28;20134;-86
2021/03/20 06:08:37;;;;;;;0.25;0.25;;;1.50;99.90;;;;;;4989443;28;20033;-85
2021/03/20 06:11:35;;;;;;;0.10;0.10;;;1.80;99.90;;;;;;4992738;28;20058;-90
2021/03/20 06:14:18;;;;;;;0.20;0.20;;;1.90;99.90;;;;;;4989289;28;20025;-89
2021/03/20 06:17:02;;;;;;;0.35;0.35;;;2.10;99.90;;;;;;5004478;28;20061;-90
2021/03/20 06:19:46;;;;;;;0.40;0.40;;;2.10;99.90;;;;;;5009388;28;20580;-90
2021/03/20 06:22:33;;;;;;;0.20;0.20;;;2.30;99.90;;;;;;4990684;28;20115;-90
2021/03/20 06:25:22;;;;;;;;;;;2.50;99.90;;;;;;4990461;28;20394;-88
2021/03/20 06:27:51;;;;;;;0.10;0.10;;;2.60;99.90;;;;;;4988293;28;20620;-87
2021/03/20 06:30:38;;;;;;;0.30;0.30;;;2.80;99.90;;;;;;4992836;28;20022;-92
2021/03/20 06:33:09;;;;;;;;;;;2.90;99.90;;;;;;4993992;28;20089;-92
2021/03/20 06:35:46;;;;;;;0.28;0.28;;;3.00;99.90;;;;;;4982772;28;19913;-92
2021/03/20 06:38:36;;;;;;;0.20;0.20;;;3.20;99.90;;;;;;4992619;28;20022;-92
2021/03/20 06:41:39;;;;;;;0.17;0.17;;;3.40;99.90;;;;;;4995547;28;20022;-93
2021/03/20 06:44:23;;;;;;;0.10;0.10;;;3.50;99.90;;;;;;4984725;28;20026;-93
2021/03/20 06:46:50;;;;;;;0.98;0.50;;;3.60;99.90;;;;;;4994956;28;20030;-93
2021/03/20 06:49:34;;;;;;;;;;;3.70;99.90;;;;;;4994353;28;20149;-92
2021/03/20 06:52:05;;;;;;;0.10;0.10;;;3.90;99.90;;;;;;4991174;28;20539;-92
2021/03/20 06:54:34;;;;;;;0.17;0.17;;;3.90;99.90;;;;;;4992908;28;20089;-94
2021/03/20 06:57:00;;;;;;;0.30;0.30;;;4.10;99.90;;;;;;4994221;28;20109;-91
2021/03/20 06:59:26;;;;;;;0.03;0.03;;;4.20;99.90;;;;;;4984558;28;20038;-90
2021/03/20 07:02:35;;;;;;;0.17;0.17;;;4.50;99.90;;;;;;4989870;28;20034;-91
2021/03/20 07:05:16;;;;;;;0.10;0.10;;;4.60;99.90;;;;;;4992876;28;20014;-91
2021/03/20 07:08:20;;;;;;;0.10;0.10;;;5.10;99.90;;;;;;4992223;28;20058;-89
2021/03/20 07:10:54;;;;;;;0.10;0.10;;;5.10;99.90;;;;;;4987694;28;20449;-91
2021/03/20 07:13:28;;;;;;;0.65;0.65;;;5.00;99.90;;;;;;4993235;28;20033;-93
2021/03/20 07:16:06;;;;;;;0.20;0.20;;;5.60;99.90;;;;;;4994041;28;20879;-91
2021/03/20 07:18:37;;;;;;;0.10;0.10;;;5.80;99.90;;;;;;4993985;28;20056;-91
2021/03/20 07:21:20;;;;;;;0.73;0.73;;;6.30;99.90;;;;;;4994893;28;20509;-91
2021/03/20 07:24:00;;;;;;;0.10;0.10;;;5.70;99.90;;;;;;4981862;28;20403;-91
2021/03/20 07:26:26;;;;;;;2.78;0.80;;;6.10;99.90;;;;;;4993801;28;20037;-92
2021/03/20 07:28:56;;;;;;;0.22;0.22;;;6.80;99.90;;;;;;4994679;28;20165;-89
2021/03/20 07:31:22;;;;;;;0.10;0.10;;;6.40;99.90;;;;;;4990414;28;20034;-90
2021/03/20 07:33:51;;;;;;;0.20;0.20;;;6.70;99.90;;;;;;4996252;28;20029;-90
2021/03/20 07:36:31;;;;;;;0.00;0.00;;;7.00;99.90;;;;;;5000695;28;20037;-89
2021/03/20 07:39:07;;;;;;;0.25;0.25;;;7.30;99.90;;;;;;4998659;28;20033;-88
2021/03/20 07:42:06;;;;;;;0.60;0.60;;;7.70;99.90;;;;;;4996130;28;20570;-90
2021/03/20 07:44:56;;;;;;;0.10;0.10;;;7.00;99.90;;;;;;4991641;28;20041;-90
2021/03/20 07:47:44;;;;;;;0.30;0.30;;;8.70;99.90;;;;;;4988410;28;20026;-90
2021/03/20 07:50:19;;;;;;;0.00;0.00;;;7.50;99.90;;;;;;4973472;28;20035;-90
2021/03/20 07:53:00;;;;;;;0.10;0.10;;;8.00;99.90;;;;;;4984889;28;20505;-91
2021/03/20 07:55:26;;;;;;;0.77;0.77;;;8.70;99.90;;;;;;4991064;28;20035;-91
2021/03/20 07:57:58;;;;;;;0.13;0.13;;;8.10;99.90;;;;;;4994412;28;20034;-91
2021/03/20 08:00:41;;;;;;;0.22;0.22;;;7.60;99.90;;;;;;4996267;28;20025;-89
2021/03/20 08:03:18;;;;;;;0.32;0.32;;;7.90;99.90;;;;;;5006099;28;20501;-89
2021/03/20 08:05:44;;;;;;;0.10;0.10;;;9.10;99.90;;;;;;4999053;28;20026;-89
2021/03/20 08:08:16;;;;;;;0.30;0.30;;;9.10;99.90;;;;;;4998298;28;20029;-90
2021/03/20 08:10:48;;;;;;;0.90;0.90;;;8.30;99.90;;;;;;4983250;28;20046;-89
2021/03/20 08:13:14;;;;;;;0.10;0.10;;;8.40;99.90;;;;;;5006824;28;20037;-89
2021/03/20 08:15:46;;;;;;;0.65;0.47;;;8.90;99.90;;;;;;4986678;28;20053;-89
2021/03/20 08:18:35;;;;;;;0.20;0.20;;;10.20;99.90;;;;;;4988889;28;20403;-88
2021/03/20 08:21:36;;;;;;;0.30;0.30;;;9.10;99.90;;;;;;4987305;28;20495;-88
2021/03/20 08:24:23;;;;;;;0.10;0.10;;;9.50;99.90;;;;;;4932372;29;20039;-88
2021/03/20 08:27:00;;;;;;;0.32;0.32;;;9.20;99.90;;;;;;4946863;29;20035;-88
2021/03/20 08:29:52;;;;;;;0.20;0.20;;;9.40;99.90;;;;;;4945290;28;20130;-88
2021/03/20 08:32:53;;;;;;;0.47;0.47;;;9.20;99.90;;;;;;4891442;29;20458;-89
2021/03/20 08:35:34;;;;;;;0.10;0.10;;;9.90;99.90;;;;;;4835391;29;20056;-88
2021/03/20 08:38:15;;;;;;;0.20;0.20;;;10.10;99.90;;;;;;4836009;29;20052;-89
2021/03/20 08:40:53;;;;;;;0.10;0.10;;;8.90;99.90;;;;;;4835646;29;20193;-89
2021/03/20 08:43:27;;;;;;;0.10;0.10;;;9.80;99.90;;;;;;4835398;29;20033;-89
2021/03/20 08:46:03;;;;;;;0.10;0.10;;;9.60;99.90;;;;;;4835868;29;20053;-91
2021/03/20 08:48:29;;;;;;;0.47;0.47;;;9.50;99.90;;;;;;4835433;29;20408;-90
2021/03/20 08:51:08;;;;;;;0.28;0.28;;;10.30;99.90;;;;;;4824187;29;20049;-91
2021/03/20 08:54:08;;;;;;;0.20;0.20;;;10.90;99.90;;;;;;4824061;29;20110;-90
2021/03/20 08:57:04;;;;;;;0.00;0.00;;;10.50;99.90;;;;;;4836347;29;20045;-91
2021/03/20 08:59:32;;;;;;;;;;;10.00;99.90;;;;;;4852629;29;20850;-90
2021/03/20 09:02:56;;;;;;;0.03;0.03;;;9.90;99.90;;;;;;4883294;29;19970;-91
2021/03/20 09:05:33;;;;;;;1.65;1.55;;;11.80;99.90;;;;;;4856720;29;20036;-91
2021/03/20 09:08:35;;;;;;;0.20;0.20;;;12.10;99.90;;;;;;4847546;29;20030;-90
2021/03/20 09:11:12;;;;;;;0.22;0.22;;;12.10;99.90;;;;;;4878722;29;20496;-92
2021/03/20 09:13:46;;;;;;;0.20;0.20;;;11.70;99.90;;;;;;4931961;29;20042;-90
2021/03/20 09:16:38;;;;;;;1.98;0.60;;;11.90;99.90;;;;;;4931472;29;20059;-91
2021/03/20 09:19:12;;;;;;;0.20;0.20;;;12.90;99.90;;;;;;4929821;29;20035;-91
2021/03/20 09:21:40;;;;;;;0.10;0.10;;;13.70;99.90;;;;;;4933886;29;20424;-91
2021/03/20 09:24:12;;;;;;;0.30;0.30;;;12.00;99.90;;;;;;4921033;29;20027;-91
2021/03/20 09:26:57;;;;;;;0.10;0.10;;;10.30;99.90;;;;;;4933929;29;20047;-90
2021/03/20 09:29:31;;;;;;;0.10;0.10;;;11.30;99.90;;;;;;4933933;29;20118;-91
2021/03/20 09:32:07;;;;;;;0.52;0.52;;;11.50;99.90;;;;;;4934312;29;20047;-92
2021/03/20 09:34:39;;;;;;;0.30;0.30;;;10.90;99.90;;;;;;4935611;29;20149;-91
2021/03/20 09:37:27;;;;;;;0.17;0.17;;;11.10;99.90;;;;;;4934910;29;20518;-92
2021/03/20 09:39:55;;;;;;;0.90;0.90;;;12.10;99.90;;;;;;4960233;28;20070;-92
2021/03/20 09:42:35;;;;;;;0.30;0.30;;;12.50;99.90;;;;;;4983459;28;20034;-92
2021/03/20 09:45:23;;;;;;;0.52;0.52;;;12.50;99.90;;;;;;4993633;28;20025;-91
2021/03/20 09:47:54;;;;;;;0.13;0.13;;;13.40;99.90;;;;;;4994320;28;20026;-92
2021/03/20 09:50:19;;;;;;;0.13;0.13;;;13.20;99.90;;;;;;4994617;28;20030;-91
2021/03/20 09:53:09;;;;;;;0.10;0.10;;;12.20;99.90;;;;;;4993159;28;20042;-90
2021/03/20 09:55:44;;;;;;;0.57;0.35;;;12.30;99.90;;;;;;4990645;28;20054;-91
2021/03/20 09:58:30;;;;;;;0.10;0.10;;;12.00;99.90;;;;;;4993981;28;20121;-90
2021/03/20 10:00:57;;;;;;;0.22;0.22;;;11.50;99.90;;;;;;4990124;28;20113;-91
2021/03/20 10:03:41;;;;;;;0.00;0.00;;;12.20;99.90;;;;;;4994674;28;20026;-91
2021/03/20 10:06:30;;;;;;;0.03;0.03;;;12.20;99.90;;;;;;4998653;28;20034;-92
2021/03/20 10:09:08;;;;;;;0.10;0.10;;;11.30;99.90;;;;;;4999159;28;20038;-89
2021/03/20 10:11:44;;;;;;;0.00;0.00;;;12.00;99.90;;;;;;4986534;28;20499;-90
2021/03/20 10:14:30;;;;;;;0.00;0.00;;;12.20;99.90;;;;;;4993165;28;20351;-91
2021/03/20 10:17:18;;;;;;;0.55;0.55;;;11.20;99.90;;;;;;4994811;28;20104;-91
2021/03/20 10:19:54;;;;;;;0.20;0.20;;;10.60;99.90;;;;;;5001758;28;20418;-91
2021/03/20 10:22:32;;;;;;;0.10;0.10;;;11.80;99.90;;;;;;4992425;28;20034;-91
2021/03/20 10:24:59;;;;;;;0.13;0.13;;;11.40;99.90;;;;;;4998125;28;20741;-92
2021/03/20 10:27:41;;;;;;;0.28;0.28;;;11.60;99.90;;;;;;4988576;28;20035;-91
2021/03/20 10:30:25;;;;;;;0.00;0.00;;;11.80;99.90;;;;;;4989011;28;20111;-90
2021/03/20 10:33:01;;;;;;;0.00;0.00;;;12.20;99.90;;;;;;4988864;28;20034;-91
2021/03/20 10:35:28;;;;;;;;;;;11.70;99.90;;;;;;4991176;28;20059;-91
2021/03/20 10:37:54;;;;;;;;;;;11.90;99.90;;;;;;4993504;28;19926;-91
2021/03/20 10:40:26;;;;;;;1.00;0.67;;;12.50;99.90;;;;;;4992723;28;19909;-90
2021/03/20 10:43:04;;;;;;;0.00;0.00;;;13.10;99.90;;;;;;4985955;28;20557;-91
2021/03/20 10:45:40;;;;;;;0.20;0.20;;;14.10;99.90;;;;;;4975232;28;20137;-90
2021/03/20 10:48:40;;;;;;;0.10;0.10;;;12.40;99.90;;;;;;4990907;28;20037;-91
2021/03/20 10:51:23;;;;;;;0.10;0.10;;;13.30;99.90;;;;;;4989983;28;20026;-88
2021/03/20 10:53:55;;;;;;;0.10;0.10;;;13.70;99.90;;;;;;4984614;28;20041;-90
2021/03/20 10:56:33;;;;;;;0.10;0.10;;;13.80;99.90;;;;;;4986698;28;20118;-87
2021/03/20 10:59:24;;;;;;;0.10;0.10;;;12.90;99.90;;;;;;4945908;28;20578;-89
2021/03/20 11:01:53;;;;;;;0.20;0.20;;;13.20;99.90;;;;;;4973250;28;20117;-89
2021/03/20 11:04:30;;;;;;;0.13;0.13;;;13.00;99.90;;;;;;4963280;28;20030;-89
2021/03/20 11:06:58;;;;;;;0.98;0.35;;;13.10;99.90;;;;;;4982671;28;20038;-89
2021/03/20 11:09:50;;;;;;;0.22;0.22;;;13.40;99.90;;;;;;4989997;28;20058;-89
2021/03/20 11:12:37;;;;;;;0.20;0.20;;;13.50;99.90;;;;;;4981806;28;20034;-88
2021/03/20 11:15:21;;;;;;;0.22;0.22;;;13.00;99.90;;;;;;4977337;28;20073;-91
2021/03/20 11:17:54;;;;;;;0.03;0.03;;;13.70;99.90;;;;;;4988155;28;20114;-91
2021/03/20 11:20:36;;;;;;;0.65;0.65;;;13.30;99.90;;;;;;4987314;28;20026;-91
2021/03/20 11:23:07;;;;;;;0.00;0.00;;;13.40;99.90;;;;;;4989852;28;20030;-91
2021/03/20 11:25:44;;;;;;;0.10;0.10;;;13.90;99.90;;;;;;4992466;28;20097;-90
2021/03/20 11:28:34;;;;;;;0.00;0.00;;;12.80;99.90;;;;;;4994548;28;20497;-90
2021/03/20 11:31:07;;;;;;;0.10;0.10;;;12.80;99.90;;;;;;4970845;28;20558;-89
2021/03/20 11:33:40;;;;;;;0.30;0.30;;;13.70;99.90;;;;;;4988712;28;20425;-88
2021/03/20 11:36:15;;;;;;;0.00;0.00;;;12.20;99.90;;;;;;4979342;28;20414;-88
2021/03/20 11:38:44;;;;;;;0.20;0.20;;;11.70;99.90;;;;;;4989334;28;20026;-87
2021/03/20 11:41:22;;;;;;;0.10;0.10;;;12.20;99.90;;;;;;4972225;28;20117;-92
2021/03/20 11:43:59;;;;;;;1.23;0.35;;;12.50;99.90;;;;;;4989597;28;20027;-89
2021/03/20 11:46:28;;;;;;;;;;;9.40;99.90;;;;;;4989742;28;20033;-91
2021/03/20 11:49:06;;;;;;;1.05;0.45;;;8.20;99.90;;;;;;4988816;28;20321;-90
2021/03/20 11:51:43;;;;;;;0.20;0.20;;;8.20;99.90;;;;;;4991249;28;20031;-93
2021/03/20 11:54:35;;;;;;;0.00;0.00;;;8.40;99.90;;;;;;4968321;28;20023;-90
2021/03/20 11:57:28;;;;;;;0.45;0.28;;;8.50;99.90;;;;;;4986323;28;20454;-91
2021/03/20 11:59:54;;;;;;;0.10;0.10;;;8.80;99.90;;;;;;4986186;28;20030;-91
2021/03/20 12:02:30;;;;;;;0.10;0.10;;;8.70;99.90;;;;;;4988662;28;20033;-92
2021/03/20 12:05:38;;;;;;;0.00;0.00;;;8.80;99.90;;;;;;4983819;28;20071;-89
2021/03/20 12:08:42;;;;;;;0.50;0.30;;;8.60;99.90;;;;;;4989188;28;20054;-91
2021/03/20 12:11:16;;;;;;;0.00;0.00;;;9.00;99.90;;;;;;4983298;28;20030;-90
2021/03/20 12:14:03;;;;;;;0.10;0.10;;;8.90;99.90;;;;;;4988938;28;20041;-89
2021/03/20 12:16:43;;;;;;;0.00;0.00;;;8.40;99.90;;;;;;4985702;28;20073;-89
2021/03/20 12:19:26;;;;;;;0.38;0.38;;;8.50;99.90;;;;;;4989039;28;20402;-89
2021/03/20 12:22:17;;;;;;;0.10;0.10;;;8.40;99.90;;;;;;4988188;28;20121;-90
2021/03/20 12:24:51;;;;;;;0.00;0.00;;;8.70;99.90;;;;;;4987407;28;20061;-90
2021/03/20 12:27:37;;;;;;;0.00;0.00;;;8.80;99.90;;;;;;4991672;28;20776;-90
2021/03/20 12:30:24;;;;;;;0.80;0.80;;;8.40;99.90;;;;;;4988337;28;20069;-90
2021/03/20 12:33:15;;;;;;;0.00;0.00;;;8.50;99.90;;;;;;4989142;28;20529;-90
2021/03/20 12:35:49;;;;;;;0.22;0.22;;;8.60;99.90;;;;;;4984974;28;20031;-90
2021/03/20 12:38:29;;;;;;;0.08;0.08;;;8.80;99.90;;;;;;4989998;28;20034;-90
2021/03/20 12:41:10;;;;;;;0.10;0.10;;;8.90;99.90;;;;;;4966303;28;20039;-89
2021/03/20 12:43:41;;;;;;;0.30;0.30;;;9.00;99.90;;;;;;4989077;28;20030;-89
2021/03/20 12:46:10;;;;;;;0.10;0.10;;;8.90;99.90;;;;;;4991023;28;20026;-90
2021/03/20 12:48:41;;;;;;;0.05;0.05;;;8.90;99.90;;;;;;4986868;28;20491;-92
2021/03/20 12:51:25;;;;;;;0.63;0.28;;;8.70;99.90;;;;;;4987030;28;20038;-90
2021/03/20 12:54:00;;;;;;;0.35;0.35;;;8.90;99.90;;;;;;4983145;28;20121;-91
2021/03/20 12:56:26;;;;;;;0.55;0.55;;;8.70;99.90;;;;;;4973654;28;20050;-91
2021/03/20 12:58:54;;;;;;;0.00;0.00;;;8.70;99.90;;;;;;4993432;28;20026;-92
2021/03/20 13:01:23;;;;;;;0.10;0.10;;;8.60;99.90;;;;;;4948040;28;20275;-90
2021/03/20 13:03:54;;;;;;;0.00;0.00;;;8.70;99.90;;;;;;4982454;28;20026;-88
2021/03/20 13:06:23;;;;;;;0.00;0.00;;;8.60;99.90;;;;;;4969872;28;20037;-90
2021/03/20 13:08:49;;;;;;;1.20;0.65;;;8.70;99.90;;;;;;4985563;28;20035;-90
2021/03/20 13:11:26;;;;;;;0.03;0.03;;;8.90;99.90;;;;;;4978903;28;20026;-89
2021/03/20 13:13:53;;;;;;;0.10;0.10;;;8.90;99.90;;;;;;4987359;28;20046;-89
2021/03/20 13:16:33;;;;;;;0.00;0.00;;;8.70;99.90;;;;;;4986775;28;20522;-89
2021/03/20 13:19:00;;;;;;;0.10;0.10;;;8.80;99.90;;;;;;4981611;28;20058;-88
2021/03/20 13:21:32;;;;;;;0.20;0.20;;;9.10;99.90;;;;;;4981323;28;20089;-86
2021/03/20 13:23:59;;;;;;;0.52;0.30;;;9.30;99.90;;;;;;4985757;28;20081;-87
2021/03/20 13:26:26;;;;;;;0.00;0.00;;;9.10;99.90;;;;;;4990048;28;20096;-89
2021/03/20 13:29:02;;;;;;;0.22;0.20;;;8.60;99.90;;;;;;4994827;28;20030;-90
2021/03/20 13:31:32;;;;;;;0.00;0.00;;;8.90;99.90;;;;;;4985989;28;20042;-89
2021/03/20 13:33:58;;;;;;;0.10;0.10;;;9.00;99.90;;;;;;4992502;28;20036;-87
2021/03/20 13:36:25;;;;;;;0.10;0.10;;;9.10;99.90;;;;;;4997294;28;20026;-88
2021/03/20 13:38:51;;;;;;;0.08;0.08;;;9.20;99.90;;;;;;4994685;28;20269;-88
2021/03/20 13:41:30;;;;;;;0.13;0.13;;;9.40;99.90;;;;;;4992733;28;20029;-92
2021/03/20 13:44:21;;;;;;;0.20;0.20;;;9.20;99.90;;;;;;4980175;28;20038;-89
2021/03/20 13:46:53;;;;;;;0.10;0.10;;;9.10;99.90;;;;;;4992424;28;20026;-90